METAR Data
IDs: Format: Raw Decoded Include TAF

Data at: 0517 UTC 20 Oct 2018

PFWS 200456Z AUTO 26017G21KT 10SM FEW018 07/04 A2937 RMK AO2 SLP951 T00670044
PFWS 200356Z AUTO 26018KT 10SM SCT019 07/04 A2934 RMK AO2 PK WND 26026/0319 SLP942 T00720044
PFWS 200343Z AUTO 26018G24KT 10SM SCT019 07/04 A2934 RMK AO2 PK WND 26026/0319
PFWS 200256Z AUTO 26018G21KT 10SM BKN019 07/04 A2933 RMK AO2 SLP936 T00720044 50007
PFWS 200251Z AUTO 26015G21KT 10SM SCT019 07/04 A2933 RMK AO2
PFWS 200156Z AUTO 27015G22KT 10SM BKN019 08/04 A2932 RMK AO2 SLP932 T00780044
PFWS 200056Z AUTO 27016G23KT 10SM BKN019 08/05 A2931 RMK AO2 SLP930 T00830050
PFWS 200046Z AUTO 26018G24KT 10SM BKN019 08/05 A2931 RMK AO2
PFWS 192356Z AUTO 26018G26KT 10SM CLR 09/06 A2929 RMK AO2 PK WND 26026/2355 SLP926 T00940056 10094 20044 55000
PFWS 192256Z AUTO 27017G21KT 10SM CLR 09/06 A2929 RMK AO2 SLP923 T00890056
PFWS 192156Z AUTO 27016G22KT 10SM CLR 09/06 A2928 RMK AO2 SLP921 T00890056
PFWS 191956Z AUTO 30010KT 10SM CLR 07/05 A2931 RMK AO2 SLP930 T00670050
PFWS 191856Z AUTO 31011G19KT 10SM CLR 06/04 A2931 RMK AO2 SLP932 T00560039
PFWS 191756Z AUTO 32010KT 10SM CLR 04/03 A2931 RMK AO2 SLP931 60000 T00440033 10056 20028 56019
PFWS 191656Z AUTO 33009KT 10SM CLR 04/03 A2932 RMK AO2 SLP934 T00390028
PFWS 191556Z AUTO 35008KT 10SM BKN090 03/02 A2934 RMK AO2 SLP942 T00330022
PFWS 191456Z AUTO 34008KT 10SM OVC090 03/03 A2937 RMK AO2 SLP950 60000 T00330028 56030
PFWS 191356Z AUTO 33005KT 10SM OVC090 04/04 A2940 RMK AO2 SLP961 T00440044
PFWS 191156Z AUTO 03007KT 10SM -RA BKN049 OVC055 05/05 A2946 RMK AO2 SLP981 P0000 60000 T00500050 10056 20022 56025
PFWS 190956Z AUTO 02005KT 10SM SCT065 BKN085 OVC110 03/03 A2950 RMK AO2 SLP995 T00330028
PFWS 190856Z AUTO 03005KT 10SM CLR 03/02 A2953 RMK AO2 SLP006 T00280017 401170022 57019
PFWS 190756Z AUTO 03004KT 10SM CLR 03/03 A2955 RMK AO2 SLP012 T00330028
PFWS 190556Z AUTO 09006KT 10SM CLR 06/04 A2959 RMK AO2 SLP025 60000 T00560039 10111 20056 58013
PFWS 190456Z AUTO 14004KT 10SM BKN065 OVC075 08/04 A2960 RMK AO2 SLP029 T00780044
PFWS 190356Z AUTO 11006KT 10SM FEW050 OVC060 07/05 A2961 RMK AO2 RAB06E40 SLP034 P0000 T00670050
PFWS 190256Z AUTO 13007KT 10SM OVC042 08/05 A2962 RMK AO2 SLP038 T00830050 56008
PFWS 190156Z AUTO 11006KT 10SM SCT060 09/05 A2963 RMK AO2 SLP041 T00890050
PFWS 190056Z AUTO 14007KT 10SM BKN046 BKN055 10/04 A2964 RMK AO2 SLP043 T01000044
PFWS 182356Z AUTO 14009KT 10SM BKN043 BKN055 11/04 A2965 RMK AO2 SLP046 T01060044 10117 20044 58009
PFWS 182056Z AUTO 15012KT 10SM BKN080 11/04 A2968 RMK AO2 SLP056 T01060044 50003
PFWS 181956Z AUTO 13011KT 10SM CLR 07/04 A2968 RMK AO2 SLP057 T00720039
PFWS 181856Z AUTO 12008KT 10SM CLR 05/04 A2968 RMK AO2 SLP056 T00500039
PFWS 181756Z AUTO 13010KT 10SM CLR 05/03 A2967 RMK AO2 SLP052 T00500028 10067 20039 53006